Terminal Aerodrome Forecast
Issued by NWS

Home | Current Version | Previous Version | Text Only | Print | Product List | Glossary On
Versions: 1 2 3 4 5 6 7 8 9 10 11 12 13 14 15 16 17 18
000
FTUS41 KBOX 241126
TAFBAF
TAF
KBAF 241126Z 2412/2512 06007KT P6SM -RA OVC025
     FM241400 04009KT 3SM RA BR OVC015
     FM241900 03009KT 3SM -SHRA BR OVC010
     FM242000 03007KT 3SM BR OVC008=

USA.gov is the U.S. government's official web portal to all federal, state and local government web resources and services.